Flight Track Log - Related Links

Times and Time Zones

All times are in EDT time to prevent confusion due to time zone crossing. See the FLG4099 flight status page for this flight to view local times or setup timezone preferences in your user account.

Time Position Orientation Groundspeed Altitude Reporting Facility
EDT Latitude Longitude Course Direction KTS MPH feet Rate Location/Type
07:05AM 44.3672 -73.2008 255° West 220 253 6,300  Level Boston Center
07:06AM 44.3731 -73.6703 253° West  Level FlightAware Approximate
07:06AM 44.3539 -73.3022 260° West 249 287 9,500  Level Boston Center
07:07AM 44.3522 -73.8014 259° West  Level FlightAware Approximate
07:07AM 44.3364 -73.4183 258° West 293 337 11,100  Level Boston Center
07:08AM 44.3334 -73.9331 259° West  Level FlightAware Approximate
07:08AM 44.3186 -73.5456 259° West 331 381 13,300  Level Boston Center
07:09AM 44.3095 -74.0631 256° West  Level FlightAware Approximate
07:09AM 44.3006 -73.6786 259° West 346 398 15,700  Level Boston Center
07:10AM 44.2855 -74.1930 256° West  Level FlightAware Approximate
07:10AM 44.2822 -73.8203 260° West 346 398 17,900  Level Boston Center
07:11AM 44.2613 -74.3228 255° West  Level FlightAware Approximate
07:11AM 44.2639 -73.9561 259° West 351 404 19,100  Level Boston Center
07:12AM 44.2431 -74.0978 258° West 362 417 20,200 1,000 Climbing Boston Center
07:13AM 44.2244 -74.2275 259° West 372 428 21,100 1,000 Climbing Boston Center
07:14AM 44.2056 -74.3775 260° West 384 442 22,200 1,100 Climbing Boston Center
07:15AM 44.1819 -74.5275 258° West 394 453 23,300 1,100 Climbing Boston Center
07:16AM 44.1625 -74.6772 260° West 394 453 24,400 1,100 Climbing Boston Center
07:17AM 44.1408 -74.8239 258° West 394 453 25,500 1,000 Climbing Boston Center
07:18AM 44.1189 -74.9764 259° West 394 453 26,400 900 Climbing Boston Center
07:19AM 44.0967 -75.1258 258° West 394 453 27,300 800 Climbing Boston Center
07:20AM 44.0742 -75.2750 258° West 394 453 28,000 350 Climbing Boston Center
07:21AM 44.0517 -75.4272 258° West 394 453 28,000  Level Boston Center
07:22AM 44.0286 -75.5878 259° West 412 474 28,000  Level Boston Center
07:23AM 44.0053 -75.7453 258° West 418 481 28,000  Level Boston Center
07:24AM 43.9797 -75.9056 258° West 423 487 28,000  Level Boston Center
07:25AM 43.9583 -76.0572 259° West 433 498 28,000  Level Boston Center
07:26AM 43.9500 -76.2528 267° West 433 498 28,000  Level Boston Center
07:27AM 43.9464 -76.4200 268° West 433 498 28,000  Level Boston Center
07:28AM 43.9428 -76.5842 268° West 433 498 28,000  Level Boston Center
07:29AM 43.9333 -76.7167 264° West 430 495 28,000  Level Toronto Center
07:30AM 43.9167 -76.8833 262° West 430 495 28,000  Level Toronto Center
07:31AM 43.9167 -77.0667 270° West 430 495 28,000  Level Toronto Center
07:32AM 43.9000 -77.2333 262° West 430 495 28,000  Level Toronto Center
07:33AM 43.9167 -77.3833 279° West 430 495 28,000  Level Toronto Center
07:34AM 43.9000 -77.5500 262° West 430 495 28,000  Level Toronto Center
07:35AM 43.8833 -77.7333 263° West 430 495 28,000  Level Toronto Center
07:36AM 43.8833 -77.9000 270° West 430 495 28,000  Level Toronto Center
07:37AM 43.8667 -78.0333 260° West 430 495 28,000  Level Toronto Center
07:38AM 43.8667 -78.2167 270° West 430 495 28,000  Level Toronto Center
07:39AM 43.8500 -78.3833 262° West 430 495 28,000  Level Toronto Center
07:40AM 43.8667 -78.5500 278° West 430 495 28,000  Level Toronto Center
07:41AM 43.8500 -78.7000 261° West 430 495 28,000  Level Toronto Center
07:42AM 43.8500 -78.9000 270° West 430 495 28,000  Level Toronto Center
07:43AM 43.8333 -79.0333 260° West 430 495 28,000  Level Toronto Center
07:44AM 43.8000 -79.2000 255° West 430 495 28,000  Level Toronto Center
07:45AM 43.7000 -79.3333 224° Southwest 440 506 28,000  Level Toronto Center
07:46AM 43.6333 -79.4500 232° Southwest 440 506 28,000  Level Toronto Center
07:47AM 43.5500 -79.5667 225° Southwest 440 506 28,000  Level Toronto Center
07:49AM 43.3833 -79.8167 228° Southwest 440 506 28,000  Level Toronto Center
07:50AM 43.3000 -79.9500 229° Southwest 440 506 28,000 -650 Level Toronto Center
07:51AM 43.2167 -80.0667 226° Southwest 430 495 26,700 -1,100 Descending Toronto Center
07:52AM 43.1500 -80.1833 232° Southwest 400 460 25,800 -1,000 Descending Toronto Center
07:53AM 43.0833 -80.3000 232° Southwest 390 449 24,700 -1,000 Descending Toronto Center
07:54AM 43.0167 -80.4000 228° Southwest 390 449 23,800 -850 Descending Toronto Center
07:55AM 42.9333 -80.5167 226° Southwest 390 449 23,000 -400 Descending Toronto Center
07:56AM 42.8667 -80.6333 232° Southwest 390 449 23,000  Level Toronto Center
07:57AM 42.8061 -80.7417 233° Southwest 398 458 23,000  Level Cleveland Center
07:58AM 42.7328 -80.8517 228° Southwest 398 458 23,000  Level Cleveland Center
07:59AM 42.6928 -80.9900 249° West 392 451 23,000  Level Cleveland Center
08:00AM 42.6778 -81.1394 262° West 392 451 23,000  Level Cleveland Center
08:01AM 42.6558 -81.3086 260° West 411 473 23,000  Level Cleveland Center
08:02AM 42.6403 -81.4639 262° West 416 479 23,000  Level Cleveland Center
08:03AM 42.6222 -81.6131 261° West 416 479 23,000  Level Cleveland Center
08:04AM 42.6042 -81.7650 261° West 411 473 23,000 -900 Level Cleveland Center
08:05AM 42.5861 -81.9000 260° West 411 473 21,200 -1,950 Descending Cleveland Center
08:06AM 42.5697 -82.0408 261° West 395 455 19,100 -2,050 Descending Cleveland Center
08:07AM 42.5533 -82.1756 261° West 381 438 17,100 -2,050 Descending Cleveland Center
08:08AM 42.5367 -82.3133 261° West 381 438 15,000 -2,100 Descending Cleveland Center
08:09AM 42.5200 -82.4508 261° West 376 433 12,900 -1,500 Descending Cleveland Center
08:10AM 42.4950 -82.5769 255° West 363 418 12,000 -720 Descending Cleveland Center
08:11AM 42.4861 -82.6133 252° West 310 357 12,000 -1,000 Level Cleveland Center
08:11AM 42.4600 -82.6772 241° Southwest 329 379 11,000 -1,429 Descending Cleveland Center
08:12AM 42.4372 -82.7806 253° West 304 350 9,500 -1,600 Descending Cleveland Center
08:13AM 42.4267 -82.8842 262° West 293 337 7,800 -1,700 Descending Cleveland Center
08:14AM 42.4142 -82.9906 261° West 293 337 6,100 -1,325 Descending Cleveland Center
08:15AM 42.4111 -83.0297 264° West 280 322 6,100 -800 Level Cleveland Center
08:15AM 42.4014 -83.0942 258° West 293 337 5,300 -1,279 Descending Cleveland Center
08:16AM 42.3964 -83.1417 262° West 287 330 4,800 -1,200 Descending Cleveland Center
08:16AM 42.3806 -83.1917 247° West 288 331 4,100 -1,000 Descending Cleveland Center

Login

Don't have an account? Register now (free) for customized features, flight alerts, and more!